Pagrindinis puslapis
METAR-TAF:

METAR-TAF

Oro uostai :

Leknes, Norvegija

platuma: 68-09N, ilguma: 013-37E, Aukštis: 2 m

Dabartinis oras

Ataskaita buvo paskelbta 38 minutes, ne 07:50 UTC
Vėjas 11 kt iš Šiaurės Vakarų, svyruoja nuo Vakarų ir Šiaurės/Šiaurės Vakarų
Temperatūra 8°C
Drėgmė 66%
Slėgis 1025 hPa
Matomumas 10 km arba daugiau
Išsisklaidę debesys ne aukštis 1800 ft

METAR: ENLK 240750Z 31011KT 270V340 9999 SCT018 08/02 Q1025

Laikas: 10:28 (08:28 UTC)


TAF: trūkstamas

Orai ataskaitas ir orų prognozės (METAR, TAF).

turimą stotys yra geltonos ir raudonos taškus žemėlapyje.

Perkelti pele per norėdami pamatyti stoties vardą.

Tada spustelėkite, norėdami matyti oro stebėjimo ir prognozės.

Norėdami pakeisti žemėlapį: spustelėkite ant žalios mygtukų su juodo kryžiaus žemyn,; žalią mygtuką su brūkšneliu, jei norite nutolinti; arba žalių rodyklių gretimoms žemėlapius.


METAR-TAF: